createdAt,value
2016-10-14T00:00:17.601Z,0
2016-10-14T00:01:17.526Z,0
2016-10-14T00:02:17.543Z,0
2016-10-14T00:03:17.608Z,0
2016-10-14T00:04:17.680Z,0
2016-10-14T00:05:17.817Z,0
2016-10-14T00:06:17.771Z,0
2016-10-14T00:07:17.845Z,0
2016-10-14T00:08:17.894Z,0
2016-10-14T00:09:17.973Z,0
2016-10-14T00:10:18.103Z,0
2016-10-14T00:11:18.566Z,0
2016-10-14T00:12:18.076Z,0
2016-10-14T00:13:18.169Z,0
2016-10-14T00:14:18.214Z,0
2016-10-14T00:15:18.364Z,0
2016-10-14T00:16:18.369Z,0
2016-10-14T00:17:18.408Z,0
2016-10-14T00:18:18.467Z,0
2016-10-14T00:19:18.489Z,0
2016-10-14T00:20:18.537Z,0
2016-10-14T00:21:18.614Z,0
2016-10-14T00:22:18.661Z,0
2016-10-14T00:23:18.672Z,0
2016-10-14T00:24:18.729Z,0
2016-10-14T00:25:18.746Z,0
2016-10-14T00:26:18.925Z,0
2016-10-14T00:27:19.368Z,0
2016-10-14T00:28:18.937Z,0
2016-10-14T00:29:19.016Z,0
2016-10-14T00:30:19.080Z,0
2016-10-14T00:31:19.249Z,0
2016-10-14T00:32:19.185Z,0
2016-10-14T00:33:19.208Z,0
2016-10-14T00:34:19.230Z,0
2016-10-14T00:35:19.330Z,0
2016-10-14T00:36:19.480Z,0
2016-10-14T00:37:19.373Z,0
2016-10-14T00:38:19.480Z,0
2016-10-14T00:39:19.528Z,0
2016-10-14T00:40:20.126Z,0
2016-10-14T00:41:19.745Z,0
2016-10-14T00:42:19.642Z,0
2016-10-14T00:43:19.728Z,0
2016-10-14T00:44:19.778Z,0
2016-10-14T00:45:19.849Z,0
2016-10-14T00:46:19.999Z,0
2016-10-14T00:47:19.946Z,0
2016-10-14T00:48:20.034Z,0
2016-10-14T00:49:20.066Z,0
2016-10-14T00:50:20.131Z,0
2016-10-14T00:51:20.292Z,0
2016-10-14T00:52:20.232Z,0
2016-10-14T00:53:20.758Z,0
2016-10-14T00:54:20.332Z,0
2016-10-14T00:55:20.370Z,0
2016-10-14T00:56:20.575Z,0
2016-10-14T00:57:20.500Z,0
2016-10-14T00:58:20.500Z,0
2016-10-14T00:59:20.573Z,0
2016-10-14T01:00:20.621Z,0
2016-10-14T01:01:20.710Z,0
2016-10-14T01:02:20.723Z,0
2016-10-14T01:03:20.766Z,0
2016-10-14T01:04:20.819Z,0
2016-10-14T01:05:20.889Z,0
2016-10-14T01:06:20.951Z,0
2016-10-14T01:07:21.134Z,0
2016-10-14T01:08:21.556Z,0
2016-10-14T01:09:21.122Z,0
2016-10-14T01:10:21.166Z,0
2016-10-14T01:11:21.196Z,0
2016-10-14T01:12:21.366Z,0
2016-10-14T01:13:21.313Z,0
2016-10-14T01:14:21.349Z,0
2016-10-14T01:15:21.402Z,0
2016-10-14T01:16:21.475Z,0
2016-10-14T01:17:21.652Z,0
2016-10-14T01:18:21.584Z,0
2016-10-14T01:19:21.670Z,0
2016-10-14T01:20:21.695Z,0
2016-10-14T01:21:22.291Z,0
2016-10-14T01:22:21.924Z,0
2016-10-14T01:23:21.798Z,0
2016-10-14T01:24:21.911Z,0
2016-10-14T01:25:21.973Z,0
2016-10-14T01:26:22.036Z,0
2016-10-14T01:27:22.159Z,0
2016-10-14T01:28:22.108Z,0
2016-10-14T01:29:22.129Z,0
2016-10-14T01:30:22.234Z,0
2016-10-14T01:31:22.798Z,0
2016-10-14T01:32:22.333Z,0
2016-10-14T01:33:22.394Z,0
2016-10-14T01:34:22.425Z,0
2016-10-14T01:35:22.440Z,0
2016-10-14T01:36:22.537Z,0
2016-10-14T01:37:22.618Z,0
2016-10-14T01:38:23.254Z,0
2016-10-14T01:39:22.721Z,0
2016-10-14T01:40:22.740Z,0
2016-10-14T01:41:22.767Z,0
2016-10-14T01:42:22.889Z,0
2016-10-14T01:43:23.011Z,0
2016-10-14T01:44:22.902Z,0
2016-10-14T01:45:23.043Z,0
2016-10-14T01:46:23.025Z,0
2016-10-14T01:47:23.110Z,0
2016-10-14T01:48:23.244Z,0
2016-10-14T01:49:23.243Z,0
2016-10-14T01:50:23.296Z,0
2016-10-14T01:51:23.312Z,0
2016-10-14T01:52:23.416Z,0
2016-10-14T01:53:23.496Z,0
2016-10-14T01:54:23.491Z,0
2016-10-14T01:55:23.524Z,0
2016-10-14T01:56:23.597Z,0
2016-10-14T01:57:23.617Z,0
2016-10-14T01:58:23.742Z,0
2016-10-14T01:59:23.753Z,0
2016-10-14T02:00:23.834Z,0
2016-10-14T02:01:23.858Z,0
2016-10-14T02:02:23.908Z,0
2016-10-14T02:03:24.475Z,0
2016-10-14T02:04:24.035Z,0
2016-10-14T02:05:24.034Z,0
2016-10-14T02:06:24.127Z,0
2016-10-14T02:07:24.177Z,0
2016-10-14T02:08:24.763Z,0
2016-10-14T02:09:24.339Z,0
2016-10-14T02:10:24.285Z,0
2016-10-14T02:11:24.338Z,0
2016-10-14T02:12:24.416Z,0
2016-10-14T02:13:24.467Z,0
2016-10-14T02:14:25.133Z,0
2016-10-14T02:15:24.559Z,0
2016-10-14T02:16:24.634Z,0
2016-10-14T02:17:24.665Z,0
2016-10-14T02:18:24.740Z,0
2016-10-14T02:19:24.885Z,0
2016-10-14T02:20:24.849Z,0
2016-10-14T02:21:24.880Z,0
2016-10-14T02:22:25.431Z,0
2016-10-14T02:23:24.999Z,0
2016-10-14T02:24:25.101Z,0
2016-10-14T02:25:25.100Z,0
2016-10-14T02:26:25.156Z,0
2016-10-14T02:27:25.225Z,0
2016-10-14T02:28:25.203Z,0
2016-10-14T02:29:25.404Z,0
2016-10-14T02:30:25.393Z,0
2016-10-14T02:31:25.387Z,0
2016-10-14T02:32:25.497Z,0
2016-10-14T02:33:26.058Z,0
2016-10-14T02:34:25.665Z,0
2016-10-14T02:35:25.674Z,0
2016-10-14T02:36:25.679Z,0
2016-10-14T02:37:25.726Z,0
2016-10-14T02:38:25.808Z,0
2016-10-14T02:39:25.876Z,0
2016-10-14T02:40:25.900Z,0
2016-10-14T02:41:25.943Z,0
2016-10-14T02:42:25.956Z,0
2016-10-14T02:43:26.053Z,0
2016-10-14T02:44:26.098Z,0
2016-10-14T02:45:26.168Z,0
2016-10-14T02:46:26.239Z,0
2016-10-14T02:47:26.251Z,0
2016-10-14T02:48:26.332Z,0
2016-10-14T02:49:26.330Z,0
2016-10-14T02:50:26.528Z,0
2016-10-14T02:51:26.434Z,0
2016-10-14T02:52:26.479Z,0
2016-10-14T02:53:26.553Z,0
2016-10-14T02:54:26.591Z,0
2016-10-14T02:55:26.793Z,0
2016-10-14T02:56:26.683Z,0
2016-10-14T02:57:26.783Z,0
2016-10-14T02:58:26.797Z,0
2016-10-14T02:59:26.962Z,0
2016-10-14T03:00:26.988Z,0
2016-10-14T03:01:26.973Z,0
2016-10-14T03:02:27.052Z,0
2016-10-14T03:03:27.106Z,0
2016-10-14T03:04:27.690Z,0
2016-10-14T03:05:27.245Z,0
2016-10-14T03:06:27.233Z,0
2016-10-14T03:07:27.327Z,0
2016-10-14T03:08:27.918Z,0
2016-10-14T03:09:27.421Z,0
2016-10-14T03:10:27.623Z,0
2016-10-14T03:11:27.511Z,0
2016-10-14T03:12:27.597Z,0
2016-10-14T03:13:27.629Z,0
2016-10-14T03:14:27.696Z,0
2016-10-14T03:15:27.850Z,0
2016-10-14T03:16:27.773Z,0
2016-10-14T03:17:27.813Z,0
2016-10-14T03:18:27.916Z,0
2016-10-14T03:19:27.928Z,0
2016-10-14T03:20:28.026Z,0
2016-10-14T03:21:28.008Z,0
2016-10-14T03:22:28.101Z,0
2016-10-14T03:23:28.168Z,0
2016-10-14T03:24:28.189Z,0
2016-10-14T03:25:28.254Z,0
2016-10-14T03:26:28.284Z,0
2016-10-14T03:27:28.334Z,0
2016-10-14T03:28:28.452Z,0
2016-10-14T03:29:28.422Z,0
2016-10-14T03:30:28.536Z,0
2016-10-14T03:31:29.224Z,0
2016-10-14T03:32:28.597Z,0
2016-10-14T03:33:28.679Z,0
2016-10-14T03:34:28.715Z,0
2016-10-14T03:35:28.819Z,0
2016-10-14T03:36:29.453Z,0
2016-10-14T03:37:28.918Z,0
2016-10-14T03:38:29.462Z,0
2016-10-14T03:39:29.025Z,0
2016-10-14T03:40:29.046Z,0
2016-10-14T03:41:29.219Z,0
2016-10-14T03:42:29.165Z,0
2016-10-14T03:43:29.213Z,0
2016-10-14T03:44:29.282Z,0
2016-10-14T03:45:29.293Z,0
2016-10-14T03:46:29.450Z,0
2016-10-14T03:47:29.431Z,0
2016-10-14T03:48:29.539Z,0
2016-10-14T03:49:29.504Z,0
2016-10-14T03:50:29.531Z,0
2016-10-14T03:51:29.633Z,0
2016-10-14T03:52:29.696Z,0
2016-10-14T03:53:29.752Z,0
2016-10-14T03:54:29.787Z,0
2016-10-14T03:55:30.343Z,0
2016-10-14T03:56:29.875Z,0
2016-10-14T03:57:30.065Z,0
2016-10-14T03:58:29.995Z,0
2016-10-14T03:59:30.062Z,0
2016-10-14T04:00:30.087Z,0
2016-10-14T04:01:30.155Z,0
2016-10-14T04:02:30.341Z,0
2016-10-14T04:03:30.272Z,0
2016-10-14T04:04:30.339Z,0
2016-10-14T04:05:30.342Z,0
2016-10-14T04:06:30.429Z,0
2016-10-14T04:07:30.572Z,0
2016-10-14T04:08:31.054Z,0
2016-10-14T04:09:30.562Z,0
2016-10-14T04:10:30.656Z,0
2016-10-14T04:11:30.687Z,0
2016-10-14T04:12:30.845Z,0
2016-10-14T04:13:30.804Z,0
2016-10-14T04:14:30.869Z,0
2016-10-14T04:15:31.382Z,0
2016-10-14T04:16:30.974Z,0
2016-10-14T04:17:30.971Z,0
2016-10-14T04:18:31.078Z,0
2016-10-14T04:19:31.071Z,0
2016-10-14T04:20:31.138Z,0
2016-10-14T04:21:31.206Z,0
2016-10-14T04:22:31.272Z,0
2016-10-14T04:23:31.464Z,0
2016-10-14T04:24:31.349Z,0
2016-10-14T04:25:31.413Z,0
2016-10-14T04:26:32.041Z,0
2016-10-14T04:27:31.520Z,0
2016-10-14T04:28:31.722Z,0
2016-10-14T04:29:31.630Z,0
2016-10-14T04:30:31.646Z,0
2016-10-14T04:31:31.769Z,0
2016-10-14T04:32:31.788Z,0
2016-10-14T04:33:31.932Z,0
2016-10-14T04:34:31.905Z,0
2016-10-14T04:35:31.955Z,0
2016-10-14T04:36:32.013Z,0
2016-10-14T04:37:32.047Z,0
2016-10-14T04:38:32.252Z,0
2016-10-14T04:39:32.173Z,0
2016-10-14T04:40:32.212Z,0
2016-10-14T04:41:32.267Z,0
2016-10-14T04:42:32.327Z,0
2016-10-14T04:43:32.360Z,0
2016-10-14T04:44:32.465Z,0
2016-10-14T04:45:32.487Z,0
2016-10-14T04:46:32.546Z,0
2016-10-14T04:47:32.582Z,0
2016-10-14T04:48:32.605Z,0
2016-10-14T04:49:32.835Z,0
2016-10-14T04:50:32.738Z,0
2016-10-14T04:51:32.831Z,0
2016-10-14T04:52:32.859Z,0
2016-10-14T04:53:32.882Z,0
2016-10-14T04:54:33.098Z,0
2016-10-14T04:55:33.042Z,0
2016-10-14T04:56:33.084Z,0
2016-10-14T04:57:33.594Z,0
2016-10-14T04:58:33.149Z,0
2016-10-14T04:59:33.847Z,0
2016-10-14T05:00:33.262Z,0
2016-10-14T05:01:33.349Z,0
2016-10-14T05:02:33.367Z,0
2016-10-14T05:03:33.444Z,0
2016-10-14T05:04:33.535Z,0
2016-10-14T05:05:33.545Z,0
2016-10-14T05:06:33.598Z,0
2016-10-14T05:07:33.658Z,0
2016-10-14T05:08:33.716Z,0
2016-10-14T05:09:33.840Z,0
2016-10-14T05:10:33.785Z,0
2016-10-14T05:11:33.836Z,0
2016-10-14T05:12:33.908Z,0
2016-10-14T05:13:33.961Z,0
2016-10-14T05:14:34.046Z,0
2016-10-14T05:15:34.040Z,0
2016-10-14T05:16:34.136Z,0
2016-10-14T05:17:34.141Z,0
2016-10-14T05:18:34.261Z,0
2016-10-14T05:19:34.301Z,0
2016-10-14T05:20:34.445Z,0
2016-10-14T05:21:34.374Z,0
2016-10-14T05:22:34.416Z,0
2016-10-14T05:23:35.010Z,0
2016-10-14T05:24:34.515Z,0
2016-10-14T05:25:34.710Z,0
2016-10-14T05:26:34.625Z,0
2016-10-14T05:27:34.717Z,0
2016-10-14T05:28:34.722Z,0
2016-10-14T05:29:34.802Z,0
2016-10-14T05:30:35.000Z,0
2016-10-14T05:31:34.917Z,0
2016-10-14T05:32:34.982Z,0
2016-10-14T05:33:35.025Z,0
2016-10-14T05:34:35.046Z,0
2016-10-14T05:35:35.233Z,0
2016-10-14T05:36:35.687Z,0
2016-10-14T05:37:35.193Z,0
2016-10-14T05:38:35.320Z,0
2016-10-14T05:39:35.339Z,0
2016-10-14T05:40:35.665Z,0
2016-10-14T05:41:35.431Z,0
2016-10-14T05:42:35.466Z,0
2016-10-14T05:43:35.535Z,0
2016-10-14T05:44:36.129Z,0
2016-10-14T05:45:36.967Z,0
2016-10-14T05:46:35.727Z,0
2016-10-14T05:47:35.766Z,0
2016-10-14T05:48:35.815Z,0
2016-10-14T05:49:35.873Z,0
2016-10-14T05:50:35.930Z,0
2016-10-14T05:51:35.955Z,0
2016-10-14T05:52:36.026Z,0
2016-10-14T05:53:36.077Z,0
2016-10-14T05:54:36.095Z,0
2016-10-14T05:55:36.129Z,0
2016-10-14T05:56:36.886Z,0
2016-10-14T05:57:36.287Z,0
2016-10-14T05:58:36.383Z,0
2016-10-14T05:59:36.399Z,0
2016-10-14T06:00:36.918Z,0
2016-10-14T06:01:36.574Z,0
2016-10-14T06:02:36.528Z,0
2016-10-14T06:03:36.649Z,0
2016-10-14T06:04:36.668Z,0
2016-10-14T06:05:36.703Z,0
2016-10-14T06:06:36.867Z,0
2016-10-14T06:07:37.357Z,0
2016-10-14T06:08:36.845Z,0
2016-10-14T06:09:36.895Z,0
2016-10-14T06:10:36.964Z,0
2016-10-14T06:11:37.131Z,0
2016-10-14T06:12:37.079Z,0
2016-10-14T06:13:37.141Z,0
2016-10-14T06:14:37.162Z,0
2016-10-14T06:15:37.215Z,0
2016-10-14T06:16:37.392Z,0
2016-10-14T06:17:37.304Z,0
2016-10-14T06:18:37.881Z,0
2016-10-14T06:19:37.455Z,0
2016-10-14T06:20:37.507Z,0
2016-10-14T06:21:37.653Z,0
2016-10-14T06:22:37.574Z,0
2016-10-14T06:23:37.649Z,0
2016-10-14T06:24:38.205Z,0
2016-10-14T06:25:37.804Z,0
2016-10-14T06:26:37.775Z,0
2016-10-14T06:27:37.873Z,0
2016-10-14T06:28:37.912Z,0
2016-10-14T06:29:37.950Z,0
2016-10-14T06:30:38.028Z,0
2016-10-14T06:31:38.575Z,0
2016-10-14T06:32:38.194Z,0
2016-10-14T06:33:38.214Z,0
2016-10-14T06:34:38.206Z,0
2016-10-14T06:35:38.256Z,0
2016-10-14T06:36:38.346Z,0
2016-10-14T06:37:38.527Z,0
2016-10-14T06:38:38.411Z,0
2016-10-14T06:39:38.547Z,0
2016-10-14T06:40:38.571Z,0
2016-10-14T06:41:38.576Z,0
2016-10-14T06:42:38.719Z,0
2016-10-14T06:43:39.230Z,0
2016-10-14T06:44:38.763Z,0
2016-10-14T06:45:38.773Z,0
2016-10-14T06:46:39.426Z,0
2016-10-14T06:47:39.005Z,0
2016-10-14T06:48:38.972Z,0
2016-10-14T06:49:39.037Z,0
2016-10-14T06:50:39.098Z,0
2016-10-14T06:51:39.128Z,0
2016-10-14T06:52:39.301Z,0
2016-10-14T06:53:39.195Z,0
2016-10-14T06:54:39.315Z,0
2016-10-14T06:55:39.306Z,0
2016-10-14T06:56:39.442Z,0
2016-10-14T06:57:39.418Z,0
2016-10-14T06:58:39.503Z,0
2016-10-14T06:59:40.043Z,0
2016-10-14T07:00:39.617Z,0
2016-10-14T07:01:39.684Z,0
2016-10-14T07:02:40.270Z,0
2016-10-14T07:03:39.749Z,0
2016-10-14T07:04:39.820Z,0
2016-10-14T07:05:39.871Z,0
2016-10-14T07:06:39.917Z,0
2016-10-14T07:07:39.959Z,0
2016-10-14T07:08:40.199Z,0
2016-10-14T07:09:40.022Z,0
2016-10-14T07:10:40.116Z,0
2016-10-14T07:11:40.731Z,0
2016-10-14T07:12:40.262Z,0
2016-10-14T07:13:40.453Z,0
2016-10-14T07:14:40.357Z,0
2016-10-14T07:15:40.368Z,0
2016-10-14T07:16:40.480Z,0
2016-10-14T07:17:40.509Z,0
2016-10-14T07:18:40.665Z,0
2016-10-14T07:19:40.586Z,0
2016-10-14T07:20:40.672Z,0
2016-10-14T07:21:40.722Z,0
2016-10-14T07:22:40.753Z,0
2016-10-14T07:23:40.922Z,0
2016-10-14T07:24:40.867Z,0
2016-10-14T07:25:40.927Z,0
2016-10-14T07:26:41.555Z,0
2016-10-14T07:27:40.998Z,0
2016-10-14T07:28:41.056Z,0
2016-10-14T07:29:41.096Z,0
2016-10-14T07:30:41.217Z,0
2016-10-14T07:31:41.231Z,0
2016-10-14T07:32:41.291Z,0
2016-10-14T07:33:41.348Z,0
2016-10-14T07:34:41.496Z,0
2016-10-14T07:35:41.994Z,0
2016-10-14T07:36:41.483Z,0
2016-10-14T07:37:41.614Z,0
2016-10-14T07:38:42.119Z,0
2016-10-14T07:39:41.780Z,0
2016-10-14T07:40:41.684Z,0
2016-10-14T07:41:41.766Z,0
2016-10-14T07:42:42.334Z,0
2016-10-14T07:43:41.877Z,0
2016-10-14T07:44:42.039Z,0
2016-10-14T07:45:42.003Z,0
2016-10-14T07:46:41.987Z,0
2016-10-14T07:47:42.061Z,0
2016-10-14T07:48:42.121Z,0
2016-10-14T07:49:42.290Z,0
2016-10-14T07:50:42.250Z,0
2016-10-14T07:51:42.259Z,0
2016-10-14T07:52:42.360Z,0
2016-10-14T07:53:42.434Z,0
2016-10-14T07:54:42.563Z,0
2016-10-14T07:55:42.507Z,0
2016-10-14T07:56:42.580Z,0
2016-10-14T07:57:42.634Z,0
2016-10-14T07:58:42.714Z,0
2016-10-14T07:59:42.817Z,0
2016-10-14T08:00:42.761Z,0
2016-10-14T08:01:42.818Z,0
2016-10-14T08:02:43.375Z,0
2016-10-14T08:03:42.948Z,0
2016-10-14T08:04:42.968Z,0
2016-10-14T08:05:43.039Z,0
2016-10-14T08:06:43.074Z,0
2016-10-14T08:07:43.147Z,0
2016-10-14T08:08:43.165Z,0
2016-10-14T08:09:43.237Z,0
2016-10-14T08:10:43.408Z,0
2016-10-14T08:11:43.389Z,0
2016-10-14T08:12:43.369Z,0
2016-10-14T08:13:43.426Z,0
2016-10-14T08:14:43.511Z,0
2016-10-14T08:15:43.676Z,0
2016-10-14T08:16:43.599Z,0
2016-10-14T08:17:43.673Z,0
2016-10-14T08:18:43.742Z,4
2016-10-14T08:19:43.794Z,4
2016-10-14T08:20:43.932Z,4
2016-10-14T08:21:43.918Z,0
2016-10-14T08:22:43.910Z,4
2016-10-14T08:23:43.992Z,4
2016-10-14T08:24:44.054Z,4
2016-10-14T08:25:44.190Z,8
2016-10-14T08:26:44.115Z,8
2016-10-14T08:27:44.180Z,12
2016-10-14T08:28:44.194Z,16
2016-10-14T08:29:44.303Z,20
2016-10-14T08:30:44.450Z,24
2016-10-14T08:31:44.390Z,28
2016-10-14T08:32:44.483Z,36
2016-10-14T08:33:44.528Z,40
2016-10-14T08:34:44.545Z,44
2016-10-14T08:35:44.686Z,44
2016-10-14T08:36:44.652Z,52
2016-10-14T08:37:44.700Z,52
2016-10-14T08:38:44.797Z,60
2016-10-14T08:39:45.319Z,64
2016-10-14T08:40:44.985Z,72
2016-10-14T08:41:44.942Z,72
2016-10-14T08:42:45.024Z,80
2016-10-14T08:43:45.010Z,80
2016-10-14T08:44:45.076Z,84
2016-10-14T08:45:45.126Z,88
2016-10-14T08:46:45.200Z,96
2016-10-14T08:47:45.258Z,100
2016-10-14T08:48:45.312Z,112
2016-10-14T08:49:45.378Z,112
2016-10-14T08:50:45.427Z,120
2016-10-14T08:51:45.553Z,124
2016-10-14T08:52:45.489Z,128
2016-10-14T08:53:45.554Z,132
2016-10-14T08:54:45.610Z,136
2016-10-14T08:55:46.231Z,136
2016-10-14T08:56:45.844Z,144
2016-10-14T08:57:45.763Z,152
2016-10-14T08:58:45.835Z,164
2016-10-14T08:59:45.905Z,176
2016-10-14T09:00:45.946Z,184
2016-10-14T09:01:46.045Z,196
2016-10-14T09:02:46.063Z,200
2016-10-14T09:03:46.097Z,204
2016-10-14T09:04:46.127Z,216
2016-10-14T09:05:46.205Z,228
2016-10-14T09:06:46.359Z,248
2016-10-14T09:07:46.312Z,268
2016-10-14T09:08:46.360Z,288
2016-10-14T09:09:46.393Z,312
2016-10-14T09:10:46.469Z,336
2016-10-14T09:11:46.593Z,364
2016-10-14T09:12:46.579Z,388
2016-10-14T09:13:46.637Z,420
2016-10-14T09:14:46.666Z,452
2016-10-14T09:15:46.752Z,476
2016-10-14T09:16:47.424Z,508
2016-10-14T09:17:46.827Z,532
2016-10-14T09:18:46.918Z,556
2016-10-14T09:19:46.940Z,580
2016-10-14T09:20:47.000Z,612
2016-10-14T09:21:47.060Z,640
2016-10-14T09:22:47.122Z,660
2016-10-14T09:23:47.171Z,676
2016-10-14T09:24:47.219Z,708
2016-10-14T09:25:47.799Z,744
2016-10-14T09:26:47.323Z,780
2016-10-14T09:27:47.397Z,816
2016-10-14T09:28:47.383Z,852
2016-10-14T09:29:48.013Z,892
2016-10-14T09:30:47.525Z,944
2016-10-14T09:31:47.551Z,992
2016-10-14T09:32:47.737Z,1040
2016-10-14T09:33:47.690Z,1108
2016-10-14T09:34:47.752Z,1196
2016-10-14T09:35:47.739Z,1308
2016-10-14T09:36:47.823Z,1376
2016-10-14T09:37:48.525Z,1344
2016-10-14T09:38:47.962Z,1284
2016-10-14T09:39:47.989Z,1248
2016-10-14T09:40:48.073Z,1248
2016-10-14T09:41:48.109Z,1264
2016-10-14T09:42:48.214Z,1288
2016-10-14T09:43:48.177Z,1304
2016-10-14T09:44:48.253Z,1312
2016-10-14T09:45:48.340Z,1332
2016-10-14T09:46:48.386Z,1364
2016-10-14T09:47:48.518Z,1412
2016-10-14T09:48:48.967Z,1464
2016-10-14T09:49:48.520Z,1512
2016-10-14T09:50:48.583Z,1556
2016-10-14T09:51:48.821Z,1592
2016-10-14T09:52:48.665Z,1604
2016-10-14T09:53:48.754Z,1616
2016-10-14T09:54:48.802Z,1608
2016-10-14T09:55:49.359Z,1564
2016-10-14T09:56:48.875Z,1500
2016-10-14T09:57:48.952Z,1452
2016-10-14T09:58:49.103Z,1440
2016-10-14T09:59:49.048Z,1480
2016-10-14T10:00:49.094Z,1608
2016-10-14T10:01:49.156Z,1776
2016-10-14T10:02:49.214Z,1844
2016-10-14T10:03:49.894Z,1820
2016-10-14T10:04:49.272Z,1808
2016-10-14T10:05:49.414Z,1776
2016-10-14T10:06:49.481Z,1780
2016-10-14T10:07:49.462Z,1836
2016-10-14T10:08:49.619Z,1936
2016-10-14T10:09:49.589Z,2064
2016-10-14T10:10:49.627Z,2220
2016-10-14T10:11:49.697Z,2368
2016-10-14T10:12:49.716Z,2496
2016-10-14T10:13:49.880Z,2612
2016-10-14T10:14:50.385Z,2800
2016-10-14T10:15:49.944Z,7232
2016-10-14T10:16:49.948Z,2548
2016-10-14T10:17:50.053Z,2244
2016-10-14T10:18:50.195Z,2128
2016-10-14T10:19:50.659Z,2108
2016-10-14T10:20:50.176Z,2180
2016-10-14T10:21:50.193Z,2252
2016-10-14T10:22:50.259Z,2300
2016-10-14T10:23:50.327Z,2292
2016-10-14T10:24:50.340Z,2264
2016-10-14T10:25:50.423Z,2300
2016-10-14T10:26:50.486Z,2380
2016-10-14T10:27:50.525Z,2452
2016-10-14T10:28:51.075Z,2480
2016-10-14T10:29:51.208Z,2468
2016-10-14T10:30:51.173Z,2428
2016-10-14T10:31:50.771Z,2356
2016-10-14T10:32:50.827Z,2300
2016-10-14T10:33:51.364Z,2300
2016-10-14T10:34:51.012Z,2360
2016-10-14T10:35:52.027Z,2384
2016-10-14T10:36:51.021Z,2412
2016-10-14T10:37:51.043Z,2436
2016-10-14T10:38:51.154Z,2492
2016-10-14T10:39:51.280Z,2684
2016-10-14T10:40:51.233Z,2852
2016-10-14T10:41:51.300Z,2980
2016-10-14T10:42:51.359Z,3264
2016-10-14T10:43:51.403Z,3724
2016-10-14T10:44:51.545Z,5388
2016-10-14T10:45:51.492Z,6176
2016-10-14T10:46:51.571Z,6384
2016-10-14T10:47:51.636Z,7412
2016-10-14T10:48:51.725Z,6312
2016-10-14T10:49:51.808Z,6172
2016-10-14T10:50:51.722Z,6000
2016-10-14T10:51:52.375Z,5940
2016-10-14T10:52:51.836Z,5960
2016-10-14T10:53:51.936Z,6032
2016-10-14T10:54:51.943Z,6128
2016-10-14T10:55:52.088Z,5968
2016-10-14T10:56:52.129Z,5636
2016-10-14T10:57:52.171Z,5352
2016-10-14T10:58:52.198Z,5084
2016-10-14T10:59:52.319Z,4720
2016-10-14T11:00:52.317Z,4300
2016-10-14T11:01:52.368Z,3956
2016-10-14T11:02:52.401Z,3676
2016-10-14T11:03:53.013Z,3436
2016-10-14T11:04:52.539Z,3312
2016-10-14T11:05:52.692Z,3244
2016-10-14T11:06:52.632Z,3220
2016-10-14T11:07:52.693Z,3236
2016-10-14T11:08:52.783Z,3240
2016-10-14T11:09:52.799Z,3240
2016-10-14T11:10:52.949Z,3228
2016-10-14T11:11:52.858Z,3168
2016-10-14T11:12:53.492Z,3132
2016-10-14T11:13:53.038Z,3116
2016-10-14T11:14:53.232Z,3124
2016-10-14T11:15:53.708Z,3148
2016-10-14T11:16:53.149Z,3168
2016-10-14T11:17:53.271Z,3192
2016-10-14T11:18:53.256Z,3256
2016-10-14T11:19:53.336Z,3416
2016-10-14T11:20:53.491Z,3632
2016-10-14T11:21:53.449Z,3860
2016-10-14T11:22:53.488Z,4160
2016-10-14T11:23:53.533Z,4388
2016-10-14T11:24:53.625Z,4596
2016-10-14T11:25:53.755Z,4776
2016-10-14T11:26:53.711Z,4964
2016-10-14T11:27:54.281Z,5180
2016-10-14T11:28:53.776Z,5408
2016-10-14T11:29:53.896Z,5796
2016-10-14T11:30:54.002Z,6972
2016-10-14T11:31:54.482Z,7872
2016-10-14T11:32:54.547Z,8332
2016-10-14T11:33:54.110Z,8752
2016-10-14T11:34:54.851Z,8648
2016-10-14T11:35:54.267Z,8368
2016-10-14T11:36:54.665Z,7448
2016-10-14T11:37:54.310Z,7584
2016-10-14T11:38:54.373Z,9200
2016-10-14T11:39:54.377Z,9312
2016-10-14T11:40:54.437Z,8600
2016-10-14T11:41:54.529Z,8924
2016-10-14T11:42:54.585Z,8884
2016-10-14T11:43:54.645Z,8812
2016-10-14T11:44:54.677Z,8644
2016-10-14T11:45:54.740Z,8052
2016-10-14T11:46:54.781Z,7896
2016-10-14T11:47:54.845Z,7680
2016-10-14T11:48:54.885Z,7556
2016-10-14T11:49:54.959Z,7452
2016-10-14T11:50:54.997Z,7468
2016-10-14T11:51:55.142Z,7516
2016-10-14T11:52:55.628Z,7440
2016-10-14T11:53:55.174Z,7428
2016-10-14T11:54:55.219Z,7304
2016-10-14T11:55:55.286Z,7256
2016-10-14T11:56:55.419Z,7212
2016-10-14T11:57:55.388Z,7052
2016-10-14T11:58:55.448Z,6912
2016-10-14T11:59:55.501Z,6992
2016-10-14T12:00:55.562Z,6900
2016-10-14T12:01:55.676Z,6764
2016-10-14T12:02:55.703Z,6728
2016-10-14T12:03:56.231Z,6780
2016-10-14T12:04:55.749Z,6732
2016-10-14T12:05:55.840Z,6676
2016-10-14T12:06:56.000Z,6840
2016-10-14T12:07:55.906Z,6936
2016-10-14T12:08:56.012Z,7124
2016-10-14T12:09:56.038Z,7256
2016-10-14T12:10:56.110Z,6704
2016-10-14T12:11:56.256Z,7404
2016-10-14T12:12:56.215Z,7272
2016-10-14T12:13:56.270Z,7612
2016-10-14T12:14:56.306Z,7712
2016-10-14T12:15:56.352Z,7548
2016-10-14T12:16:56.540Z,7540
2016-10-14T12:17:56.512Z,7764
2016-10-14T12:18:56.551Z,7672
2016-10-14T12:19:56.651Z,7564
2016-10-14T12:20:56.627Z,7584
2016-10-14T12:21:56.711Z,6212
2016-10-14T12:22:56.784Z,7124
2016-10-14T12:23:56.787Z,6944
2016-10-14T12:24:57.414Z,7152
2016-10-14T12:25:57.671Z,7088
2016-10-14T12:26:56.985Z,7240
2016-10-14T12:27:57.145Z,7216
2016-10-14T12:28:57.137Z,7108
2016-10-14T12:29:57.133Z,6708
2016-10-14T12:30:57.194Z,6784
2016-10-14T12:31:57.285Z,7120
2016-10-14T12:32:57.955Z,7560
2016-10-14T12:33:57.395Z,7568
2016-10-14T12:34:57.466Z,6900
2016-10-14T12:35:57.479Z,6864
2016-10-14T12:36:57.607Z,6504
2016-10-14T12:37:57.680Z,6832
2016-10-14T12:38:57.663Z,6992
2016-10-14T12:39:57.741Z,7012
2016-10-14T12:40:57.765Z,6516
2016-10-14T12:41:58.411Z,5980
2016-10-14T12:42:58.019Z,5696
2016-10-14T12:43:57.922Z,5780
2016-10-14T12:44:59.080Z,5720
2016-10-14T12:45:58.623Z,6036
2016-10-14T12:46:58.133Z,6116
2016-10-14T12:47:58.196Z,5840
2016-10-14T12:48:58.218Z,5756
2016-10-14T12:49:58.291Z,5388
2016-10-14T12:50:58.519Z,5620
2016-10-14T12:51:58.417Z,6408
2016-10-14T12:52:58.436Z,6464
2016-10-14T12:53:58.582Z,6360
2016-10-14T12:54:58.509Z,6288
2016-10-14T12:55:58.575Z,6228
2016-10-14T12:56:58.711Z,6132
2016-10-14T12:57:58.708Z,6076
2016-10-14T12:58:58.879Z,6124
2016-10-14T12:59:59.382Z,6148
2016-10-14T13:00:58.873Z,6088
2016-10-14T13:01:58.961Z,6108
2016-10-14T13:02:59.054Z,6112
2016-10-14T13:03:59.691Z,6136
2016-10-14T13:04:59.128Z,6012
2016-10-14T13:05:59.146Z,5988
2016-10-14T13:06:59.215Z,6008
2016-10-14T13:07:59.277Z,5724
2016-10-14T13:08:59.949Z,5964
2016-10-14T13:09:59.360Z,5892
2016-10-14T13:10:59.475Z,5896
2016-10-14T13:11:59.535Z,5888
2016-10-14T13:12:59.567Z,5924
2016-10-14T13:13:59.703Z,5844
2016-10-14T13:15:00.187Z,5464
2016-10-14T13:16:00.254Z,5704
2016-10-14T13:16:59.777Z,5988
2016-10-14T13:17:59.870Z,5884
2016-10-14T13:19:00.493Z,5632
2016-10-14T13:19:59.978Z,5580
2016-10-14T13:21:00.041Z,6268
2016-10-14T13:22:00.128Z,6272
2016-10-14T13:23:00.156Z,6252
2016-10-14T13:24:00.195Z,6152
2016-10-14T13:25:00.274Z,6320
2016-10-14T13:26:00.319Z,6228
2016-10-14T13:27:00.338Z,6232
2016-10-14T13:28:00.384Z,6192
2016-10-14T13:29:00.451Z,6108
2016-10-14T13:30:00.641Z,6148
2016-10-14T13:31:00.580Z,6160
2016-10-14T13:32:00.623Z,6240
2016-10-14T13:33:00.717Z,6156
2016-10-14T13:34:00.748Z,6076
2016-10-14T13:35:01.470Z,5992
2016-10-14T13:36:00.859Z,5964
2016-10-14T13:37:02.714Z,5924
2016-10-14T13:38:02.053Z,5908
2016-10-14T13:39:01.564Z,6032
2016-10-14T13:40:02.532Z,6088
2016-10-14T13:41:01.710Z,5952
2016-10-14T13:42:01.212Z,6476
2016-10-14T13:43:01.243Z,5496
2016-10-14T13:44:01.322Z,6516
2016-10-14T13:45:01.491Z,5564
2016-10-14T13:46:01.952Z,5672
2016-10-14T13:47:01.484Z,6948
2016-10-14T13:48:02.035Z,6768
2016-10-14T13:49:01.600Z,5268
2016-10-14T13:50:01.738Z,6680
2016-10-14T13:51:01.695Z,6400
2016-10-14T13:52:01.729Z,5320
2016-10-14T13:53:01.824Z,5360
2016-10-14T13:54:02.409Z,5744
2016-10-14T13:55:02.522Z,5424
2016-10-14T13:56:02.026Z,6352
2016-10-14T13:57:02.021Z,5464
2016-10-14T13:58:02.097Z,6908
2016-10-14T13:59:03.191Z,6708
2016-10-14T14:00:02.235Z,6932
2016-10-14T14:01:02.401Z,6912
2016-10-14T14:02:02.323Z,6992
2016-10-14T14:03:02.375Z,5796
2016-10-14T14:04:02.992Z,6752
2016-10-14T14:05:02.487Z,5484
2016-10-14T14:06:03.267Z,5208
2016-10-14T14:07:02.618Z,5036
2016-10-14T14:08:03.394Z,4940
2016-10-14T14:09:03.267Z,4952
2016-10-14T14:10:03.350Z,4872
2016-10-14T14:11:02.954Z,5140
2016-10-14T14:12:02.902Z,5048
2016-10-14T14:13:03.482Z,5076